sensor_id;sensor_type;location;lat;lon;timestamp;P1;durP1;ratioP1;P2;durP2;ratioP2
30515;SDS011;17297;54.022;10.760;2022-11-04T00:00:44;5.32;;;3.20;;
30515;SDS011;17297;54.022;10.760;2022-11-04T00:03:09;3.78;;;3.00;;
30515;SDS011;17297;54.022;10.760;2022-11-04T00:05:35;4.57;;;2.80;;
30515;SDS011;17297;54.022;10.760;2022-11-04T00:08:00;4.90;;;2.95;;
30515;SDS011;17297;54.022;10.760;2022-11-04T00:10:44;5.30;;;2.55;;
30515;SDS011;17297;54.022;10.760;2022-11-04T00:13:28;3.47;;;2.47;;
30515;SDS011;17297;54.022;10.760;2022-11-04T00:15:54;5.32;;;2.60;;
30515;SDS011;17297;54.022;10.760;2022-11-04T00:18:38;4.13;;;2.60;;
30515;SDS011;17297;54.022;10.760;2022-11-04T00:21:03;3.95;;;2.72;;
30515;SDS011;17297;54.022;10.760;2022-11-04T00:23:47;5.30;;;2.60;;
30515;SDS011;17297;54.022;10.760;2022-11-04T00:26:31;4.50;;;2.90;;
30515;SDS011;17297;54.022;10.760;2022-11-04T00:29:14;3.55;;;2.28;;
30515;SDS011;17297;54.022;10.760;2022-11-04T00:31:40;5.68;;;2.60;;
30515;SDS011;17297;54.022;10.760;2022-11-04T00:34:24;6.05;;;3.00;;
30515;SDS011;17297;54.022;10.760;2022-11-04T00:36:49;5.45;;;3.25;;
30515;SDS011;17297;54.022;10.760;2022-11-04T00:39:14;4.05;;;2.47;;
30515;SDS011;17297;54.022;10.760;2022-11-04T00:41:39;4.03;;;3.08;;
30515;SDS011;17297;54.022;10.760;2022-11-04T00:44:05;6.00;;;2.92;;
30515;SDS011;17297;54.022;10.760;2022-11-04T00:46:31;5.15;;;2.92;;
30515;SDS011;17297;54.022;10.760;2022-11-04T00:48:57;4.88;;;2.70;;
30515;SDS011;17297;54.022;10.760;2022-11-04T00:51:23;3.03;;;2.33;;
30515;SDS011;17297;54.022;10.760;2022-11-04T00:53:49;5.40;;;2.88;;
30515;SDS011;17297;54.022;10.760;2022-11-04T00:56:15;4.05;;;2.80;;
30515;SDS011;17297;54.022;10.760;2022-11-04T00:58:40;4.15;;;2.30;;
30515;SDS011;17297;54.022;10.760;2022-11-04T01:01:10;5.55;;;2.65;;
30515;SDS011;17297;54.022;10.760;2022-11-04T01:03:37;3.85;;;2.50;;
30515;SDS011;17297;54.022;10.760;2022-11-04T01:06:02;4.05;;;2.53;;
30515;SDS011;17297;54.022;10.760;2022-11-04T01:08:28;3.58;;;2.70;;
30515;SDS011;17297;54.022;10.760;2022-11-04T01:10:53;4.30;;;2.88;;
30515;SDS011;17297;54.022;10.760;2022-11-04T01:13:19;3.10;;;2.60;;
30515;SDS011;17297;54.022;10.760;2022-11-04T01:15:45;4.43;;;2.33;;
30515;SDS011;17297;54.022;10.760;2022-11-04T01:18:11;5.30;;;2.25;;
30515;SDS011;17297;54.022;10.760;2022-11-04T01:20:36;3.20;;;2.90;;
30515;SDS011;17297;54.022;10.760;2022-11-04T01:23:01;3.78;;;3.35;;
30515;SDS011;17297;54.022;10.760;2022-11-04T01:25:27;4.38;;;2.40;;
30515;SDS011;17297;54.022;10.760;2022-11-04T01:27:52;3.38;;;2.70;;
30515;SDS011;17297;54.022;10.760;2022-11-04T01:30:19;4.85;;;3.05;;
30515;SDS011;17297;54.022;10.760;2022-11-04T01:32:45;3.22;;;2.80;;
30515;SDS011;17297;54.022;10.760;2022-11-04T01:35:10;3.42;;;2.30;;
30515;SDS011;17297;54.022;10.760;2022-11-04T01:37:35;4.78;;;3.05;;
30515;SDS011;17297;54.022;10.760;2022-11-04T01:40:01;3.33;;;2.78;;
30515;SDS011;17297;54.022;10.760;2022-11-04T01:42:26;4.60;;;2.50;;
30515;SDS011;17297;54.022;10.760;2022-11-04T01:44:53;4.22;;;2.65;;
30515;SDS011;17297;54.022;10.760;2022-11-04T01:47:22;4.43;;;2.78;;
30515;SDS011;17297;54.022;10.760;2022-11-04T01:49:52;2.70;;;2.33;;
30515;SDS011;17297;54.022;10.760;2022-11-04T01:52:26;4.13;;;2.95;;
30515;SDS011;17297;54.022;10.760;2022-11-04T01:54:56;4.15;;;2.70;;
30515;SDS011;17297;54.022;10.760;2022-11-04T01:57:29;3.88;;;2.78;;
30515;SDS011;17297;54.022;10.760;2022-11-04T02:00:00;3.45;;;2.60;;
30515;SDS011;17297;54.022;10.760;2022-11-04T02:02:38;4.57;;;2.45;;
30515;SDS011;17297;54.022;10.760;2022-11-04T02:05:10;3.08;;;1.90;;
30515;SDS011;17297;54.022;10.760;2022-11-04T02:07:35;4.35;;;2.53;;
30515;SDS011;17297;54.022;10.760;2022-11-04T02:10:02;3.50;;;2.78;;
30515;SDS011;17297;54.022;10.760;2022-11-04T02:12:27;3.35;;;2.28;;
30515;SDS011;17297;54.022;10.760;2022-11-04T02:15:11;3.08;;;2.63;;
30515;SDS011;17297;54.022;10.760;2022-11-04T02:17:40;4.68;;;2.78;;
30515;SDS011;17297;54.022;10.760;2022-11-04T02:20:17;4.38;;;2.72;;
30515;SDS011;17297;54.022;10.760;2022-11-04T02:25:31;4.63;;;2.63;;
30515;SDS011;17297;54.022;10.760;2022-11-04T02:28:27;4.75;;;2.50;;
30515;SDS011;17297;54.022;10.760;2022-11-04T02:37:05;2.97;;;2.20;;
30515;SDS011;17297;54.022;10.760;2022-11-04T02:42:54;4.30;;;3.08;;
30515;SDS011;17297;54.022;10.760;2022-11-04T02:45:25;3.25;;;2.53;;
30515;SDS011;17297;54.022;10.760;2022-11-04T02:48:45;2.90;;;2.60;;
30515;SDS011;17297;54.022;10.760;2022-11-04T02:51:19;4.15;;;2.65;;
30515;SDS011;17297;54.022;10.760;2022-11-04T02:56:26;3.55;;;2.42;;
30515;SDS011;17297;54.022;10.760;2022-11-04T02:58:55;3.83;;;3.05;;
30515;SDS011;17297;54.022;10.760;2022-11-04T03:01:25;4.28;;;3.53;;
30515;SDS011;17297;54.022;10.760;2022-11-04T03:03:59;4.47;;;3.15;;
30515;SDS011;17297;54.022;10.760;2022-11-04T03:06:29;4.07;;;2.85;;
30515;SDS011;17297;54.022;10.760;2022-11-04T03:08:55;4.40;;;3.03;;
30515;SDS011;17297;54.022;10.760;2022-11-04T03:11:23;3.47;;;3.08;;
30515;SDS011;17297;54.022;10.760;2022-11-04T03:16:17;5.13;;;2.90;;
30515;SDS011;17297;54.022;10.760;2022-11-04T03:18:51;3.67;;;3.13;;
30515;SDS011;17297;54.022;10.760;2022-11-04T03:21:40;5.10;;;2.85;;
30515;SDS011;17297;54.022;10.760;2022-11-04T03:24:11;4.40;;;2.95;;
30515;SDS011;17297;54.022;10.760;2022-11-04T03:26:38;4.70;;;3.65;;
30515;SDS011;17297;54.022;10.760;2022-11-04T03:29:13;4.70;;;2.72;;
30515;SDS011;17297;54.022;10.760;2022-11-04T03:31:45;9.98;;;3.85;;
30515;SDS011;17297;54.022;10.760;2022-11-04T03:34:22;4.72;;;2.60;;
30515;SDS011;17297;54.022;10.760;2022-11-04T03:36:48;5.10;;;2.63;;
30515;SDS011;17297;54.022;10.760;2022-11-04T03:39:13;3.22;;;2.92;;
30515;SDS011;17297;54.022;10.760;2022-11-04T03:41:43;5.85;;;3.42;;
30515;SDS011;17297;54.022;10.760;2022-11-04T03:44:23;3.25;;;2.72;;
30515;SDS011;17297;54.022;10.760;2022-11-04T03:46:50;4.28;;;3.17;;
30515;SDS011;17297;54.022;10.760;2022-11-04T03:49:17;5.63;;;2.75;;
30515;SDS011;17297;54.022;10.760;2022-11-04T03:51:43;5.10;;;3.15;;
30515;SDS011;17297;54.022;10.760;2022-11-04T03:54:08;3.28;;;2.92;;
30515;SDS011;17297;54.022;10.760;2022-11-04T03:59:24;6.72;;;3.10;;
30515;SDS011;17297;54.022;10.760;2022-11-04T04:02:04;4.45;;;3.05;;
30515;SDS011;17297;54.022;10.760;2022-11-04T04:04:39;3.58;;;2.80;;
30515;SDS011;17297;54.022;10.760;2022-11-04T04:07:14;5.22;;;3.50;;
30515;SDS011;17297;54.022;10.760;2022-11-04T04:10:19;4.35;;;2.97;;
30515;SDS011;17297;54.022;10.760;2022-11-04T04:18:49;5.45;;;3.22;;
30515;SDS011;17297;54.022;10.760;2022-11-04T04:21:18;4.82;;;2.97;;
30515;SDS011;17297;54.022;10.760;2022-11-04T04:23:47;4.47;;;3.17;;
30515;SDS011;17297;54.022;10.760;2022-11-04T04:26:34;4.68;;;3.45;;
30515;SDS011;17297;54.022;10.760;2022-11-04T04:29:20;3.60;;;3.05;;
30515;SDS011;17297;54.022;10.760;2022-11-04T04:31:47;5.18;;;3.60;;
30515;SDS011;17297;54.022;10.760;2022-11-04T04:34:17;3.90;;;3.42;;
30515;SDS011;17297;54.022;10.760;2022-11-04T04:36:50;5.75;;;3.33;;
30515;SDS011;17297;54.022;10.760;2022-11-04T04:39:21;5.63;;;3.75;;
30515;SDS011;17297;54.022;10.760;2022-11-04T04:42:08;5.38;;;3.22;;
30515;SDS011;17297;54.022;10.760;2022-11-04T04:44:54;4.60;;;3.72;;
30515;SDS011;17297;54.022;10.760;2022-11-04T04:47:44;4.47;;;3.15;;
30515;SDS011;17297;54.022;10.760;2022-11-04T04:50:14;4.22;;;3.20;;
30515;SDS011;17297;54.022;10.760;2022-11-04T04:52:44;5.15;;;3.22;;
30515;SDS011;17297;54.022;10.760;2022-11-04T04:55:11;3.78;;;3.42;;
30515;SDS011;17297;54.022;10.760;2022-11-04T04:57:38;5.82;;;3.83;;
30515;SDS011;17297;54.022;10.760;2022-11-04T05:00:04;5.07;;;3.30;;
30515;SDS011;17297;54.022;10.760;2022-11-04T05:02:31;5.30;;;4.13;;
30515;SDS011;17297;54.022;10.760;2022-11-04T05:04:57;4.18;;;3.08;;
30515;SDS011;17297;54.022;10.760;2022-11-04T05:07:23;4.22;;;3.55;;
30515;SDS011;17297;54.022;10.760;2022-11-04T05:09:49;4.72;;;3.38;;
30515;SDS011;17297;54.022;10.760;2022-11-04T05:12:14;5.13;;;3.20;;
30515;SDS011;17297;54.022;10.760;2022-11-04T05:14:39;4.20;;;3.80;;
30515;SDS011;17297;54.022;10.760;2022-11-04T05:17:05;4.55;;;3.58;;
30515;SDS011;17297;54.022;10.760;2022-11-04T05:19:30;6.00;;;4.07;;
30515;SDS011;17297;54.022;10.760;2022-11-04T05:21:56;5.53;;;3.70;;
30515;SDS011;17297;54.022;10.760;2022-11-04T05:24:22;6.00;;;4.35;;
30515;SDS011;17297;54.022;10.760;2022-11-04T05:26:47;4.47;;;4.07;;
30515;SDS011;17297;54.022;10.760;2022-11-04T05:29:12;8.00;;;3.58;;
30515;SDS011;17297;54.022;10.760;2022-11-04T05:31:38;5.72;;;3.80;;
30515;SDS011;17297;54.022;10.760;2022-11-04T05:34:03;3.90;;;3.47;;
30515;SDS011;17297;54.022;10.760;2022-11-04T05:36:30;4.13;;;3.45;;
30515;SDS011;17297;54.022;10.760;2022-11-04T05:38:57;5.22;;;4.00;;
30515;SDS011;17297;54.022;10.760;2022-11-04T05:41:22;5.03;;;4.40;;
30515;SDS011;17297;54.022;10.760;2022-11-04T05:43:55;5.47;;;3.92;;
30515;SDS011;17297;54.022;10.760;2022-11-04T05:46:22;6.50;;;4.43;;
30515;SDS011;17297;54.022;10.760;2022-11-04T05:48:47;5.18;;;3.55;;
30515;SDS011;17297;54.022;10.760;2022-11-04T05:51:23;5.38;;;3.55;;
30515;SDS011;17297;54.022;10.760;2022-11-04T05:53:50;4.68;;;3.45;;
30515;SDS011;17297;54.022;10.760;2022-11-04T05:56:18;5.15;;;3.80;;
30515;SDS011;17297;54.022;10.760;2022-11-04T05:58:44;3.67;;;3.30;;
30515;SDS011;17297;54.022;10.760;2022-11-04T06:01:31;4.00;;;3.05;;
30515;SDS011;17297;54.022;10.760;2022-11-04T06:04:00;4.50;;;3.63;;
30515;SDS011;17297;54.022;10.760;2022-11-04T06:06:26;5.00;;;3.70;;
30515;SDS011;17297;54.022;10.760;2022-11-04T06:08:54;6.88;;;3.45;;
30515;SDS011;17297;54.022;10.760;2022-11-04T06:11:20;4.38;;;3.25;;
30515;SDS011;17297;54.022;10.760;2022-11-04T06:13:45;4.13;;;3.33;;
30515;SDS011;17297;54.022;10.760;2022-11-04T06:16:11;4.50;;;3.10;;
30515;SDS011;17297;54.022;10.760;2022-11-04T06:18:36;4.35;;;3.78;;
30515;SDS011;17297;54.022;10.760;2022-11-04T06:21:22;4.82;;;3.72;;
30515;SDS011;17297;54.022;10.760;2022-11-04T06:23:50;5.07;;;3.70;;
30515;SDS011;17297;54.022;10.760;2022-11-04T06:26:16;4.03;;;3.17;;
30515;SDS011;17297;54.022;10.760;2022-11-04T06:28:41;5.47;;;3.05;;
30515;SDS011;17297;54.022;10.760;2022-11-04T06:31:08;3.83;;;2.95;;
30515;SDS011;17297;54.022;10.760;2022-11-04T06:33:41;3.97;;;2.55;;
30515;SDS011;17297;54.022;10.760;2022-11-04T06:36:07;5.93;;;2.83;;
30515;SDS011;17297;54.022;10.760;2022-11-04T06:38:36;4.18;;;3.30;;
30515;SDS011;17297;54.022;10.760;2022-11-04T06:41:02;3.33;;;2.60;;
30515;SDS011;17297;54.022;10.760;2022-11-04T06:43:29;5.03;;;2.75;;
30515;SDS011;17297;54.022;10.760;2022-11-04T06:45:59;4.38;;;3.15;;
30515;SDS011;17297;54.022;10.760;2022-11-04T06:48:26;4.30;;;2.55;;
30515;SDS011;17297;54.022;10.760;2022-11-04T06:50:55;3.83;;;2.80;;
30515;SDS011;17297;54.022;10.760;2022-11-04T06:53:25;3.75;;;2.70;;
30515;SDS011;17297;54.022;10.760;2022-11-04T06:55:51;4.40;;;2.90;;
30515;SDS011;17297;54.022;10.760;2022-11-04T06:58:17;3.90;;;2.35;;
30515;SDS011;17297;54.022;10.760;2022-11-04T07:00:43;2.65;;;2.40;;
30515;SDS011;17297;54.022;10.760;2022-11-04T07:03:09;3.75;;;2.50;;
30515;SDS011;17297;54.022;10.760;2022-11-04T07:05:35;4.88;;;2.38;;
30515;SDS011;17297;54.022;10.760;2022-11-04T07:08:00;4.07;;;2.35;;
30515;SDS011;17297;54.022;10.760;2022-11-04T07:10:25;4.60;;;2.17;;
30515;SDS011;17297;54.022;10.760;2022-11-04T07:12:51;2.95;;;2.10;;
30515;SDS011;17297;54.022;10.760;2022-11-04T07:15:18;3.25;;;1.90;;
30515;SDS011;17297;54.022;10.760;2022-11-04T07:17:43;3.67;;;2.15;;
30515;SDS011;17297;54.022;10.760;2022-11-04T07:20:09;2.88;;;2.25;;
30515;SDS011;17297;54.022;10.760;2022-11-04T07:22:37;2.40;;;2.17;;
30515;SDS011;17297;54.022;10.760;2022-11-04T07:25:02;3.05;;;2.42;;
30515;SDS011;17297;54.022;10.760;2022-11-04T07:27:28;3.30;;;2.38;;
30515;SDS011;17297;54.022;10.760;2022-11-04T07:29:53;2.50;;;2.25;;
30515;SDS011;17297;54.022;10.760;2022-11-04T07:32:19;3.72;;;2.17;;
30515;SDS011;17297;54.022;10.760;2022-11-04T07:34:44;2.40;;;2.13;;
30515;SDS011;17297;54.022;10.760;2022-11-04T07:37:09;2.20;;;1.95;;
30515;SDS011;17297;54.022;10.760;2022-11-04T07:39:35;4.40;;;2.28;;
30515;SDS011;17297;54.022;10.760;2022-11-04T07:42:00;2.42;;;1.95;;
30515;SDS011;17297;54.022;10.760;2022-11-04T07:44:25;2.60;;;2.20;;
30515;SDS011;17297;54.022;10.760;2022-11-04T07:46:51;2.40;;;1.77;;
30515;SDS011;17297;54.022;10.760;2022-11-04T07:49:16;3.30;;;2.13;;
30515;SDS011;17297;54.022;10.760;2022-11-04T07:51:41;2.70;;;1.67;;
30515;SDS011;17297;54.022;10.760;2022-11-04T07:54:07;3.38;;;1.95;;
30515;SDS011;17297;54.022;10.760;2022-11-04T07:56:34;2.05;;;1.85;;
30515;SDS011;17297;54.022;10.760;2022-11-04T07:59:00;2.80;;;1.90;;
30515;SDS011;17297;54.022;10.760;2022-11-04T08:01:25;1.92;;;1.67;;
30515;SDS011;17297;54.022;10.760;2022-11-04T08:03:51;2.33;;;2.13;;
30515;SDS011;17297;54.022;10.760;2022-11-04T08:06:19;3.38;;;1.80;;
30515;SDS011;17297;54.022;10.760;2022-11-04T08:08:44;2.13;;;1.92;;
30515;SDS011;17297;54.022;10.760;2022-11-04T08:11:13;2.83;;;2.10;;
30515;SDS011;17297;54.022;10.760;2022-11-04T08:13:40;3.42;;;2.20;;
30515;SDS011;17297;54.022;10.760;2022-11-04T08:16:07;2.53;;;1.98;;
30515;SDS011;17297;54.022;10.760;2022-11-04T08:18:36;2.33;;;1.90;;
30515;SDS011;17297;54.022;10.760;2022-11-04T08:21:02;2.30;;;1.80;;
30515;SDS011;17297;54.022;10.760;2022-11-04T08:23:28;3.00;;;2.00;;
30515;SDS011;17297;54.022;10.760;2022-11-04T08:25:53;2.00;;;1.80;;
30515;SDS011;17297;54.022;10.760;2022-11-04T08:28:20;1.92;;;1.65;;
30515;SDS011;17297;54.022;10.760;2022-11-04T08:31:02;2.40;;;1.80;;
30515;SDS011;17297;54.022;10.760;2022-11-04T08:33:31;1.77;;;1.67;;
30515;SDS011;17297;54.022;10.760;2022-11-04T08:35:59;1.55;;;1.45;;
30515;SDS011;17297;54.022;10.760;2022-11-04T08:38:26;1.55;;;1.45;;
30515;SDS011;17297;54.022;10.760;2022-11-04T08:40:55;2.28;;;1.80;;
30515;SDS011;17297;54.022;10.760;2022-11-04T08:43:22;2.47;;;1.52;;
30515;SDS011;17297;54.022;10.760;2022-11-04T08:45:47;1.73;;;1.58;;
30515;SDS011;17297;54.022;10.760;2022-11-04T08:48:13;2.08;;;1.88;;
30515;SDS011;17297;54.022;10.760;2022-11-04T08:50:40;2.30;;;1.75;;
30515;SDS011;17297;54.022;10.760;2022-11-04T08:53:06;1.65;;;1.55;;
30515;SDS011;17297;54.022;10.760;2022-11-04T08:55:31;2.30;;;1.92;;
30515;SDS011;17297;54.022;10.760;2022-11-04T08:57:57;2.83;;;2.05;;
30515;SDS011;17297;54.022;10.760;2022-11-04T09:00:23;2.28;;;1.60;;
30515;SDS011;17297;54.022;10.760;2022-11-04T09:02:49;1.58;;;1.48;;
30515;SDS011;17297;54.022;10.760;2022-11-04T09:05:15;2.15;;;1.55;;
30515;SDS011;17297;54.022;10.760;2022-11-04T09:07:41;1.83;;;1.73;;
30515;SDS011;17297;54.022;10.760;2022-11-04T09:10:07;1.90;;;1.65;;
30515;SDS011;17297;54.022;10.760;2022-11-04T09:12:33;1.63;;;1.50;;
30515;SDS011;17297;54.022;10.760;2022-11-04T09:14:59;2.05;;;1.85;;
30515;SDS011;17297;54.022;10.760;2022-11-04T09:17:24;2.63;;;1.90;;
30515;SDS011;17297;54.022;10.760;2022-11-04T09:19:50;4.00;;;2.30;;
30515;SDS011;17297;54.022;10.760;2022-11-04T09:22:15;2.00;;;1.85;;
30515;SDS011;17297;54.022;10.760;2022-11-04T09:24:41;1.85;;;1.70;;
30515;SDS011;17297;54.022;10.760;2022-11-04T09:27:06;1.83;;;1.63;;
30515;SDS011;17297;54.022;10.760;2022-11-04T09:29:31;2.45;;;1.75;;
30515;SDS011;17297;54.022;10.760;2022-11-04T09:31:58;2.00;;;1.73;;
30515;SDS011;17297;54.022;10.760;2022-11-04T09:34:24;2.00;;;1.63;;
30515;SDS011;17297;54.022;10.760;2022-11-04T09:36:53;2.10;;;1.90;;
30515;SDS011;17297;54.022;10.760;2022-11-04T09:39:19;1.85;;;1.52;;
30515;SDS011;17297;54.022;10.760;2022-11-04T09:41:50;2.45;;;1.50;;
30515;SDS011;17297;54.022;10.760;2022-11-04T09:44:26;2.10;;;1.60;;
30515;SDS011;17297;54.022;10.760;2022-11-04T09:46:59;1.92;;;1.67;;
30515;SDS011;17297;54.022;10.760;2022-11-04T09:49:33;1.45;;;1.35;;
30515;SDS011;17297;54.022;10.760;2022-11-04T09:52:05;2.30;;;2.10;;
30515;SDS011;17297;54.022;10.760;2022-11-04T09:54:42;1.95;;;1.75;;
30515;SDS011;17297;54.022;10.760;2022-11-04T09:57:16;2.00;;;1.80;;
30515;SDS011;17297;54.022;10.760;2022-11-04T09:59:43;2.95;;;1.77;;
30515;SDS011;17297;54.022;10.760;2022-11-04T10:07:26;2.10;;;1.88;;
30515;SDS011;17297;54.022;10.760;2022-11-04T10:10:00;2.50;;;1.67;;
30515;SDS011;17297;54.022;10.760;2022-11-04T10:23:43;3.47;;;1.75;;
30515;SDS011;17297;54.022;10.760;2022-11-04T10:26:23;2.28;;;2.08;;
30515;SDS011;17297;54.022;10.760;2022-11-04T10:28:57;2.83;;;1.88;;
30515;SDS011;17297;54.022;10.760;2022-11-04T10:31:27;2.72;;;1.98;;
30515;SDS011;17297;54.022;10.760;2022-11-04T10:33:53;2.55;;;1.92;;
30515;SDS011;17297;54.022;10.760;2022-11-04T10:36:23;2.03;;;1.80;;
30515;SDS011;17297;54.022;10.760;2022-11-04T10:38:51;2.15;;;1.90;;
30515;SDS011;17297;54.022;10.760;2022-11-04T10:43:44;2.28;;;1.52;;
30515;SDS011;17297;54.022;10.760;2022-11-04T10:49:17;1.80;;;1.65;;
30515;SDS011;17297;54.022;10.760;2022-11-04T10:52:05;3.80;;;1.73;;
30515;SDS011;17297;54.022;10.760;2022-11-04T10:54:42;2.80;;;2.22;;
30515;SDS011;17297;54.022;10.760;2022-11-04T10:57:09;2.75;;;2.20;;
30515;SDS011;17297;54.022;10.760;2022-11-04T10:59:48;2.50;;;1.83;;
30515;SDS011;17297;54.022;10.760;2022-11-04T11:07:56;2.78;;;1.90;;
30515;SDS011;17297;54.022;10.760;2022-11-04T11:10:23;2.00;;;1.77;;
30515;SDS011;17297;54.022;10.760;2022-11-04T11:13:01;2.67;;;1.90;;
30515;SDS011;17297;54.022;10.760;2022-11-04T11:15:32;3.15;;;1.67;;
30515;SDS011;17297;54.022;10.760;2022-11-04T11:18:05;2.45;;;1.70;;
30515;SDS011;17297;54.022;10.760;2022-11-04T11:20:37;2.15;;;1.90;;
30515;SDS011;17297;54.022;10.760;2022-11-04T11:23:05;2.05;;;1.60;;
30515;SDS011;17297;54.022;10.760;2022-11-04T11:26:15;1.92;;;1.42;;
30515;SDS011;17297;54.022;10.760;2022-11-04T11:28:47;1.95;;;1.67;;
30515;SDS011;17297;54.022;10.760;2022-11-04T11:31:15;2.30;;;1.42;;
30515;SDS011;17297;54.022;10.760;2022-11-04T11:33:54;1.63;;;1.52;;
30515;SDS011;17297;54.022;10.760;2022-11-04T11:36:23;2.05;;;1.80;;
30515;SDS011;17297;54.022;10.760;2022-11-04T11:39:01;2.00;;;1.58;;
30515;SDS011;17297;54.022;10.760;2022-11-04T11:44:27;2.25;;;1.50;;
30515;SDS011;17297;54.022;10.760;2022-11-04T11:47:06;1.58;;;1.48;;
30515;SDS011;17297;54.022;10.760;2022-11-04T11:52:42;1.25;;;1.15;;
30515;SDS011;17297;54.022;10.760;2022-11-04T11:55:14;1.17;;;0.95;;
30515;SDS011;17297;54.022;10.760;2022-11-04T12:00:37;1.90;;;1.15;;
30515;SDS011;17297;54.022;10.760;2022-11-04T12:03:12;1.30;;;1.20;;
30515;SDS011;17297;54.022;10.760;2022-11-04T12:17:26;1.63;;;1.10;;
30515;SDS011;17297;54.022;10.760;2022-11-04T12:22:54;1.52;;;0.90;;
30515;SDS011;17297;54.022;10.760;2022-11-04T12:28:17;0.93;;;0.88;;
30515;SDS011;17297;54.022;10.760;2022-11-04T12:33:38;0.73;;;0.73;;
30515;SDS011;17297;54.022;10.760;2022-11-04T12:36:19;0.63;;;0.63;;
30515;SDS011;17297;54.022;10.760;2022-11-04T12:44:14;1.35;;;0.85;;
30515;SDS011;17297;54.022;10.760;2022-11-04T12:49:40;0.88;;;0.80;;
30515;SDS011;17297;54.022;10.760;2022-11-04T12:52:31;1.92;;;0.90;;
30515;SDS011;17297;54.022;10.760;2022-11-04T12:55:30;1.88;;;0.80;;
30515;SDS011;17297;54.022;10.760;2022-11-04T12:58:21;1.10;;;0.82;;
30515;SDS011;17297;54.022;10.760;2022-11-04T13:01:07;0.60;;;0.60;;
30515;SDS011;17297;54.022;10.760;2022-11-04T13:03:51;2.00;;;0.70;;
30515;SDS011;17297;54.022;10.760;2022-11-04T13:06:39;1.98;;;0.80;;
30515;SDS011;17297;54.022;10.760;2022-11-04T13:12:12;1.00;;;0.70;;
30515;SDS011;17297;54.022;10.760;2022-11-04T13:14:46;1.85;;;0.73;;
30515;SDS011;17297;54.022;10.760;2022-11-04T13:17:18;1.17;;;0.80;;
30515;SDS011;17297;54.022;10.760;2022-11-04T13:19:48;2.20;;;1.55;;
30515;SDS011;17297;54.022;10.760;2022-11-04T13:22:22;0.70;;;0.70;;
30515;SDS011;17297;54.022;10.760;2022-11-04T13:27:54;1.15;;;1.02;;
30515;SDS011;17297;54.022;10.760;2022-11-04T13:30:43;1.65;;;0.70;;
30515;SDS011;17297;54.022;10.760;2022-11-04T13:44:28;0.75;;;0.63;;
30515;SDS011;17297;54.022;10.760;2022-11-04T13:47:04;0.60;;;0.60;;
30515;SDS011;17297;54.022;10.760;2022-11-04T13:49:38;1.25;;;0.70;;
30515;SDS011;17297;54.022;10.760;2022-11-04T13:52:12;0.88;;;0.70;;
30515;SDS011;17297;54.022;10.760;2022-11-04T13:54:42;1.85;;;0.82;;
30515;SDS011;17297;54.022;10.760;2022-11-04T13:57:25;0.55;;;0.50;;
30515;SDS011;17297;54.022;10.760;2022-11-04T14:18:48;1.27;;;0.50;;
30515;SDS011;17297;54.022;10.760;2022-11-04T14:21:27;1.00;;;0.70;;
30515;SDS011;17297;54.022;10.760;2022-11-04T14:23:57;0.43;;;0.43;;
30515;SDS011;17297;54.022;10.760;2022-11-04T14:26:28;1.23;;;0.57;;
30515;SDS011;17297;54.022;10.760;2022-11-04T14:29:08;1.75;;;0.98;;
30515;SDS011;17297;54.022;10.760;2022-11-04T14:31:41;1.48;;;0.77;;
30515;SDS011;17297;54.022;10.760;2022-11-04T14:34:23;0.98;;;0.50;;
30515;SDS011;17297;54.022;10.760;2022-11-04T14:36:55;0.65;;;0.65;;
30515;SDS011;17297;54.022;10.760;2022-11-04T14:39:23;1.92;;;0.93;;
30515;SDS011;17297;54.022;10.760;2022-11-04T14:41:56;1.42;;;0.70;;
30515;SDS011;17297;54.022;10.760;2022-11-04T14:47:06;1.23;;;0.60;;
30515;SDS011;17297;54.022;10.760;2022-11-04T14:50:42;1.05;;;0.70;;
30515;SDS011;17297;54.022;10.760;2022-11-04T14:53:00;1.70;;;0.55;;
30515;SDS011;17297;54.022;10.760;2022-11-04T14:55:29;1.45;;;0.70;;
30515;SDS011;17297;54.022;10.760;2022-11-04T14:58:12;1.17;;;0.80;;
30515;SDS011;17297;54.022;10.760;2022-11-04T15:05:46;3.38;;;0.90;;
30515;SDS011;17297;54.022;10.760;2022-11-04T15:13:38;2.40;;;0.65;;
30515;SDS011;17297;54.022;10.760;2022-11-04T15:16:09;4.00;;;0.80;;
30515;SDS011;17297;54.022;10.760;2022-11-04T15:18:40;2.03;;;1.00;;
30515;SDS011;17297;54.022;10.760;2022-11-04T15:21:06;1.27;;;0.70;;
30515;SDS011;17297;54.022;10.760;2022-11-04T15:23:39;1.40;;;0.77;;
30515;SDS011;17297;54.022;10.760;2022-11-04T15:26:19;0.77;;;0.68;;
30515;SDS011;17297;54.022;10.760;2022-11-04T15:28:56;1.15;;;0.68;;
30515;SDS011;17297;54.022;10.760;2022-11-04T15:31:24;2.13;;;0.65;;
30515;SDS011;17297;54.022;10.760;2022-11-04T15:33:53;2.97;;;1.00;;
30515;SDS011;17297;54.022;10.760;2022-11-04T15:36:22;0.68;;;0.65;;
30515;SDS011;17297;54.022;10.760;2022-11-04T15:41:36;0.70;;;0.63;;
30515;SDS011;17297;54.022;10.760;2022-11-04T15:44:26;2.58;;;0.70;;
30515;SDS011;17297;54.022;10.760;2022-11-04T15:46:56;2.05;;;0.77;;
30515;SDS011;17297;54.022;10.760;2022-11-04T15:49:26;0.82;;;0.77;;
30515;SDS011;17297;54.022;10.760;2022-11-04T15:52:00;1.50;;;0.70;;
30515;SDS011;17297;54.022;10.760;2022-11-04T15:54:33;1.20;;;0.80;;
30515;SDS011;17297;54.022;10.760;2022-11-04T15:57:02;1.67;;;0.60;;
30515;SDS011;17297;54.022;10.760;2022-11-04T16:02:03;2.55;;;0.90;;
30515;SDS011;17297;54.022;10.760;2022-11-04T16:04:31;1.40;;;0.70;;
30515;SDS011;17297;54.022;10.760;2022-11-04T16:09:43;1.20;;;0.68;;
30515;SDS011;17297;54.022;10.760;2022-11-04T16:14:51;1.52;;;0.98;;
30515;SDS011;17297;54.022;10.760;2022-11-04T16:17:19;2.13;;;0.80;;
30515;SDS011;17297;54.022;10.760;2022-11-04T16:19:52;1.58;;;0.85;;
30515;SDS011;17297;54.022;10.760;2022-11-04T16:22:22;0.93;;;0.70;;
30515;SDS011;17297;54.022;10.760;2022-11-04T16:24:51;1.58;;;0.90;;
30515;SDS011;17297;54.022;10.760;2022-11-04T16:27:19;1.75;;;0.80;;
30515;SDS011;17297;54.022;10.760;2022-11-04T16:30:20;3.28;;;1.98;;
30515;SDS011;17297;54.022;10.760;2022-11-04T16:32:49;1.50;;;0.85;;
30515;SDS011;17297;54.022;10.760;2022-11-04T16:37:48;1.35;;;0.77;;
30515;SDS011;17297;54.022;10.760;2022-11-04T16:40:15;2.08;;;1.08;;
30515;SDS011;17297;54.022;10.760;2022-11-04T16:42:41;1.52;;;1.20;;
30515;SDS011;17297;54.022;10.760;2022-11-04T16:45:09;2.30;;;1.27;;
30515;SDS011;17297;54.022;10.760;2022-11-04T16:47:44;1.88;;;1.10;;
30515;SDS011;17297;54.022;10.760;2022-11-04T16:50:13;2.80;;;1.10;;
30515;SDS011;17297;54.022;10.760;2022-11-04T16:52:40;6.13;;;2.42;;
30515;SDS011;17297;54.022;10.760;2022-11-04T16:55:05;1.83;;;1.15;;
30515;SDS011;17297;54.022;10.760;2022-11-04T16:57:32;2.05;;;1.27;;
30515;SDS011;17297;54.022;10.760;2022-11-04T16:59:57;2.03;;;1.08;;
30515;SDS011;17297;54.022;10.760;2022-11-04T17:02:26;2.63;;;1.27;;
30515;SDS011;17297;54.022;10.760;2022-11-04T17:04:58;2.53;;;1.25;;
30515;SDS011;17297;54.022;10.760;2022-11-04T17:07:24;1.25;;;1.15;;
30515;SDS011;17297;54.022;10.760;2022-11-04T17:09:49;2.40;;;1.30;;
30515;SDS011;17297;54.022;10.760;2022-11-04T17:12:15;3.10;;;2.03;;
30515;SDS011;17297;54.022;10.760;2022-11-04T17:14:40;1.90;;;1.40;;
30515;SDS011;17297;54.022;10.760;2022-11-04T17:17:06;5.03;;;1.90;;
30515;SDS011;17297;54.022;10.760;2022-11-04T17:19:32;3.10;;;1.90;;
30515;SDS011;17297;54.022;10.760;2022-11-04T17:21:58;2.47;;;1.92;;
30515;SDS011;17297;54.022;10.760;2022-11-04T17:24:24;2.90;;;1.80;;
30515;SDS011;17297;54.022;10.760;2022-11-04T17:26:50;3.00;;;1.30;;